Time;durP1;ratioP1;P1;durP2;ratioP2;P2;SDS_P1;SDS_P2;PMS_P1;PMS_P2;Temp;Humidity;BMP_temperature;BMP_pressure;BME280_temperature;BME280_humidity;BME280_pressure;Samples;Min_cycle;Max_cycle;Signal;HPM_P1;HPM_P2
2023/07/01 00:00:40;;;;;;;2.38;1.27;;;23.70;52.70;;;;;;4954578;29;20043;-74
2023/07/01 00:03:08;;;;;;;1.52;1.20;;;23.70;52.70;;;;;;4939873;29;20118;-74
2023/07/01 00:05:34;;;;;;;1.08;0.98;;;23.70;52.70;;;;;;4955678;28;20034;-74
2023/07/01 00:07:59;;;;;;;1.95;1.20;;;23.70;52.70;;;;;;4955015;29;20078;-74
2023/07/01 00:10:25;;;;;;;1.45;1.10;;;23.60;52.70;;;;;;4954641;29;20035;-75
2023/07/01 00:12:52;;;;;;;1.65;1.00;;;23.60;52.70;;;;;;4954859;29;20050;-75
2023/07/01 00:15:18;;;;;;;2.15;1.20;;;23.60;52.70;;;;;;4938574;28;20385;-74
2023/07/01 00:17:44;;;;;;;1.85;1.27;;;23.60;52.70;;;;;;4954673;29;20036;-74
2023/07/01 00:20:11;;;;;;;1.27;1.02;;;23.60;52.70;;;;;;4954193;29;20089;-74
2023/07/01 00:22:37;;;;;;;1.83;1.20;;;23.60;52.80;;;;;;4938601;29;20065;-75
2023/07/01 00:25:03;;;;;;;1.20;1.10;;;23.60;52.70;;;;;;4954767;29;20496;-75
2023/07/01 00:27:28;;;;;;;1.35;1.10;;;23.60;52.80;;;;;;4938639;29;20027;-74
2023/07/01 00:29:54;;;;;;;1.63;1.13;;;23.50;52.70;;;;;;4938502;28;20385;-75
2023/07/01 00:32:20;;;;;;;1.20;1.10;;;23.50;52.70;;;;;;4938671;29;20032;-74
2023/07/01 00:34:47;;;;;;;1.20;1.10;;;23.50;52.80;;;;;;4954269;28;20082;-75
2023/07/01 00:37:12;;;;;;;1.10;1.00;;;23.50;52.80;;;;;;4954035;28;20023;-74
2023/07/01 00:39:38;;;;;;;2.22;1.27;;;23.50;52.80;;;;;;4938060;28;20055;-75
2023/07/01 00:42:04;;;;;;;1.48;1.13;;;23.50;52.80;;;;;;4954020;29;20046;-75
2023/07/01 00:44:30;;;;;;;2.17;1.30;;;23.50;52.80;;;;;;4939037;29;20432;-74
2023/07/01 00:46:56;;;;;;;1.85;1.20;;;23.50;52.80;;;;;;4938103;29;20067;-75
2023/07/01 00:49:22;;;;;;;1.67;1.10;;;23.40;53.40;;;;;;4938830;29;20047;-74
2023/07/01 00:51:48;;;;;;;2.35;1.40;;;23.40;52.70;;;;;;4938851;29;20118;-74
2023/07/01 00:54:13;;;;;;;1.63;1.10;;;23.40;52.80;;;;;;4937792;29;20530;-74
2023/07/01 00:56:40;;;;;;;2.80;1.27;;;23.40;52.80;;;;;;4953988;29;20039;-76
2023/07/01 00:59:06;;;;;;;1.92;1.30;;;23.30;52.70;;;;;;4954424;29;20468;-74
2023/07/01 01:01:43;;;;;;;1.45;1.30;;;23.30;52.70;;;;;;4955305;28;20024;-74
2023/07/01 01:04:29;;;;;;;2.00;1.30;;;23.30;52.70;;;;;;4938413;29;20043;-75
2023/07/01 01:07:03;;;;;;;1.88;1.10;;;23.30;52.80;;;;;;4954959;28;20027;-74
2023/07/01 01:09:31;;;;;;;1.88;1.35;;;23.30;52.70;;;;;;4954110;29;20114;-75
2023/07/01 01:11:59;;;;;;;1.25;1.13;;;23.30;52.80;;;;;;4954848;28;20539;-74
2023/07/01 01:14:27;;;;;;;1.90;1.23;;;23.30;52.80;;;;;;4953787;28;20038;-75
2023/07/01 01:16:55;;;;;;;1.40;1.17;;;23.30;52.80;;;;;;4955153;28;20086;-75
2023/07/01 01:19:51;;;;;;;1.48;1.23;;;23.30;52.80;;;;;;4954234;29;20034;-75
2023/07/01 01:22:23;;;;;;;2.15;1.30;;;23.20;52.80;;;;;;4953850;29;20078;-76
2023/07/01 01:25:00;;;;;;;2.38;1.20;;;23.20;52.80;;;;;;4954600;28;20031;-75
2023/07/01 01:27:28;;;;;;;1.52;1.20;;;23.20;52.80;;;;;;4954010;28;20031;-76
2023/07/01 01:29:54;;;;;;;1.75;1.25;;;23.20;52.80;;;;;;4954525;29;20051;-75
2023/07/01 01:32:20;;;;;;;1.77;1.25;;;23.20;52.80;;;;;;4937797;28;20491;-76
2023/07/01 01:34:46;;;;;;;1.38;1.25;;;23.20;52.80;;;;;;4953887;29;20027;-75
2023/07/01 01:37:41;;;;;;;1.85;1.25;;;23.10;52.80;;;;;;4953745;29;20530;-76
2023/07/01 01:40:16;;;;;;;1.05;0.90;;;23.10;52.80;;;;;;4954663;28;20055;-75
2023/07/01 01:42:44;;;;;;;1.30;1.10;;;23.10;52.80;;;;;;4953880;29;20396;-75
2023/07/01 01:45:11;;;;;;;2.53;1.20;;;23.10;52.80;;;;;;4954563;28;20043;-75
2023/07/01 01:47:36;;;;;;;1.63;1.30;;;23.10;52.80;;;;;;4954869;28;20034;-75
2023/07/01 01:50:07;;;;;;;2.10;1.10;;;23.10;52.80;;;;;;4940807;29;20035;-76
2023/07/01 01:52:34;;;;;;;1.98;1.40;;;23.00;52.80;;;;;;4941973;29;20511;-76
2023/07/01 01:55:01;;;;;;;1.73;1.13;;;23.00;52.80;;;;;;4941438;29;20031;-75
2023/07/01 01:57:26;;;;;;;1.42;1.20;;;23.00;52.80;;;;;;4941070;29;20037;-75
2023/07/01 01:59:53;;;;;;;1.17;1.05;;;23.00;52.80;;;;;;4956903;29;20129;-75
2023/07/01 02:02:19;;;;;;;1.45;1.20;;;23.00;52.90;;;;;;4940548;28;20040;-74
2023/07/01 02:04:44;;;;;;;1.83;1.40;;;23.00;52.90;;;;;;4956819;28;20039;-75
2023/07/01 02:07:10;;;;;;;2.08;1.17;;;23.00;52.90;;;;;;4940875;28;20031;-74
2023/07/01 02:09:36;;;;;;;1.90;1.20;;;23.00;53.00;;;;;;4957528;29;20039;-74
2023/07/01 02:12:04;;;;;;;1.15;1.05;;;23.00;53.00;;;;;;4957161;29;20490;-75
2023/07/01 02:14:31;;;;;;;2.22;1.30;;;23.00;52.90;;;;;;4940641;28;20078;-75
2023/07/01 02:16:57;;;;;;;1.63;1.10;;;23.00;53.00;;;;;;4958176;28;20070;-77
2023/07/01 02:19:23;;;;;;;1.63;1.30;;;22.90;53.00;;;;;;4940902;29;20039;-74
2023/07/01 02:21:48;;;;;;;1.67;1.10;;;22.90;53.00;;;;;;4940570;28;20038;-75
2023/07/01 02:24:14;;;;;;;1.60;1.10;;;22.90;53.00;;;;;;4956865;29;20035;-75
2023/07/01 02:26:40;;;;;;;1.67;1.23;;;22.90;53.00;;;;;;4940648;28;20121;-75
2023/07/01 02:29:08;;;;;;;2.25;1.27;;;22.90;53.00;;;;;;4956505;29;20127;-75
2023/07/01 02:31:34;;;;;;;1.52;1.00;;;22.90;53.00;;;;;;4940556;29;20090;-75
2023/07/01 02:34:01;;;;;;;1.50;1.10;;;22.90;53.10;;;;;;4940217;28;20054;-76
2023/07/01 02:36:27;;;;;;;2.28;1.38;;;22.90;53.10;;;;;;4956334;28;20027;-74
2023/07/01 02:38:53;;;;;;;1.55;1.20;;;22.80;53.00;;;;;;4956286;29;20031;-75
2023/07/01 02:41:18;;;;;;;1.73;1.30;;;22.80;53.10;;;;;;4940028;29;20074;-75
2023/07/01 02:43:44;;;;;;;1.30;1.17;;;22.80;53.10;;;;;;4956218;29;20049;-76
2023/07/01 02:46:10;;;;;;;1.05;1.00;;;22.80;53.20;;;;;;4940490;29;20039;-75
2023/07/01 02:48:35;;;;;;;1.30;1.10;;;22.80;53.20;;;;;;4956188;29;20062;-75
2023/07/01 02:51:01;;;;;;;3.45;1.40;;;22.80;53.20;;;;;;4940160;28;20508;-74
2023/07/01 02:53:27;;;;;;;1.80;1.30;;;22.80;53.20;;;;;;4939950;29;20032;-75
2023/07/01 02:55:53;;;;;;;1.60;1.20;;;22.70;53.20;;;;;;4956009;29;20031;-75
2023/07/01 02:58:19;;;;;;;2.05;1.30;;;22.70;53.30;;;;;;4940163;29;20031;-74
2023/07/01 03:00:46;;;;;;;1.30;1.20;;;22.70;53.30;;;;;;4939868;29;20031;-76
2023/07/01 03:03:12;;;;;;;1.58;1.30;;;22.70;53.30;;;;;;4955873;29;20534;-75
2023/07/01 03:05:39;;;;;;;3.20;1.40;;;22.70;53.40;;;;;;4957261;28;20039;-75
2023/07/01 03:08:05;;;;;;;1.48;1.05;;;22.70;53.40;;;;;;4956064;29;20082;-75
2023/07/01 03:10:32;;;;;;;2.00;1.30;;;22.70;53.40;;;;;;4939730;29;20031;-75
2023/07/01 03:12:58;;;;;;;2.40;1.40;;;22.70;53.40;;;;;;4940446;28;20465;-75
2023/07/01 03:15:24;;;;;;;1.65;1.17;;;22.70;53.50;;;;;;4955636;29;20106;-75
2023/07/01 03:17:50;;;;;;;1.50;1.23;;;22.70;53.60;;;;;;4955846;29;20457;-75
2023/07/01 03:20:22;;;;;;;2.10;1.15;;;22.60;53.60;;;;;;4939605;29;20483;-75
2023/07/01 03:22:58;;;;;;;1.40;1.10;;;22.60;53.60;;;;;;4955653;28;20065;-75
2023/07/01 03:25:25;;;;;;;2.10;1.10;;;22.60;53.70;;;;;;4939833;28;20122;-76
2023/07/01 03:27:51;;;;;;;1.23;1.13;;;22.60;53.70;;;;;;4939405;29;20074;-75
2023/07/01 03:30:18;;;;;;;2.45;1.52;;;22.60;53.80;;;;;;4956567;28;20031;-75
2023/07/01 03:32:45;;;;;;;1.38;1.08;;;22.60;53.80;;;;;;4939697;29;20109;-75
2023/07/01 03:35:12;;;;;;;1.30;1.10;;;22.60;53.90;;;;;;4955089;29;20028;-75
2023/07/01 03:37:39;;;;;;;1.25;1.15;;;22.60;53.90;;;;;;4955210;28;20027;-76
2023/07/01 03:40:10;;;;;;;1.45;1.05;;;22.60;54.00;;;;;;4955323;29;20055;-75
2023/07/01 03:42:43;;;;;;;1.38;1.10;;;22.60;54.10;;;;;;4955739;29;20109;-75
2023/07/01 03:45:10;;;;;;;1.77;1.15;;;22.50;54.10;;;;;;4939153;29;20027;-75
2023/07/01 03:47:38;;;;;;;1.35;1.20;;;22.60;54.20;;;;;;4955268;28;20037;-74
2023/07/01 03:50:07;;;;;;;1.55;1.30;;;22.50;54.30;;;;;;4956354;28;20035;-76
2023/07/01 03:52:36;;;;;;;2.25;1.30;;;22.50;54.30;;;;;;4939575;29;20548;-76
2023/07/01 03:55:02;;;;;;;1.45;1.08;;;22.50;54.40;;;;;;4954690;29;20102;-75
2023/07/01 03:57:28;;;;;;;2.33;1.35;;;22.50;54.40;;;;;;4939856;29;20032;-75
2023/07/01 03:59:54;;;;;;;1.40;1.20;;;22.50;54.50;;;;;;4956086;28;20519;-75
2023/07/01 04:02:20;;;;;;;2.13;1.20;;;22.50;54.50;;;;;;4938640;29;20055;-75
2023/07/01 04:04:45;;;;;;;1.63;1.08;;;22.50;54.60;;;;;;4955264;29;20433;-75
2023/07/01 04:07:11;;;;;;;1.40;1.05;;;22.50;54.60;;;;;;4954744;29;20039;-75
2023/07/01 04:09:37;;;;;;;1.55;1.17;;;22.40;54.60;;;;;;4939750;28;20038;-75
2023/07/01 04:12:03;;;;;;;1.42;1.25;;;22.40;54.60;;;;;;4954836;28;20094;-76
2023/07/01 04:14:29;;;;;;;1.50;1.15;;;22.40;54.60;;;;;;4938367;29;20078;-75
2023/07/01 04:16:54;;;;;;;1.45;1.13;;;22.40;54.70;;;;;;4938689;28;20043;-74
2023/07/01 04:19:20;;;;;;;1.23;1.10;;;22.40;54.70;;;;;;4938763;29;20380;-74
2023/07/01 04:21:46;;;;;;;1.98;1.27;;;22.40;54.80;;;;;;4922518;29;20038;-74
2023/07/01 04:24:11;;;;;;;2.00;1.30;;;22.40;54.80;;;;;;4954618;29;20066;-75
2023/07/01 04:26:37;;;;;;;1.40;1.13;;;22.30;54.80;;;;;;4954435;29;20492;-74
2023/07/01 04:29:03;;;;;;;1.40;1.20;;;22.30;54.90;;;;;;4938291;29;20392;-75
2023/07/01 04:31:29;;;;;;;1.23;1.13;;;22.30;55.00;;;;;;4955910;28;20039;-76
2023/07/01 04:33:55;;;;;;;1.23;1.13;;;22.30;55.00;;;;;;4955716;28;20037;-75
2023/07/01 04:36:22;;;;;;;1.23;1.13;;;22.30;55.00;;;;;;4954428;29;20113;-75
2023/07/01 04:38:47;;;;;;;1.38;1.20;;;22.30;55.10;;;;;;4954379;28;20467;-76
2023/07/01 04:41:13;;;;;;;1.48;1.30;;;22.20;55.10;;;;;;4953999;29;20043;-76
2023/07/01 04:43:40;;;;;;;1.20;1.10;;;22.20;55.20;;;;;;4938138;29;20050;-75
2023/07/01 04:46:06;;;;;;;2.13;1.27;;;22.20;55.30;;;;;;4954025;29;20487;-76
2023/07/01 04:48:32;;;;;;;2.45;1.00;;;22.20;55.40;;;;;;4953970;29;20027;-75
2023/07/01 04:50:57;;;;;;;1.42;1.00;;;22.20;55.40;;;;;;4938297;29;20042;-77
2023/07/01 04:53:23;;;;;;;1.17;1.02;;;22.20;55.40;;;;;;4953897;29;20163;-74
2023/07/01 04:55:50;;;;;;;1.08;0.98;;;22.20;55.40;;;;;;4938053;28;20032;-75
2023/07/01 04:58:15;;;;;;;1.73;1.20;;;22.20;55.50;;;;;;4955281;28;20480;-74
2023/07/01 05:00:42;;;;;;;1.33;0.82;;;22.10;55.50;;;;;;4953921;29;20228;-76
2023/07/01 05:03:07;;;;;;;1.10;1.00;;;22.10;55.50;;;;;;4954244;29;20130;-75
2023/07/01 05:05:33;;;;;;;2.28;1.20;;;22.10;55.60;;;;;;4954150;29;20111;-75
2023/07/01 05:07:59;;;;;;;1.05;0.90;;;22.10;55.60;;;;;;4938366;29;20042;-75
2023/07/01 05:10:24;;;;;;;1.27;0.98;;;22.10;55.60;;;;;;4938329;29;20491;-74
2023/07/01 05:12:50;;;;;;;1.10;1.00;;;22.10;55.70;;;;;;4938004;29;20065;-76
2023/07/01 05:15:16;;;;;;;1.20;1.08;;;22.10;55.70;;;;;;4938231;29;20473;-76
2023/07/01 05:17:43;;;;;;;1.00;0.90;;;22.10;55.80;;;;;;4938765;28;20039;-76
2023/07/01 05:20:09;;;;;;;1.25;1.15;;;22.10;55.80;;;;;;4938075;29;20035;-76
2023/07/01 05:22:36;;;;;;;1.40;1.13;;;22.00;55.80;;;;;;4938010;29;20048;-75
2023/07/01 05:25:03;;;;;;;1.10;1.00;;;22.10;55.90;;;;;;4941525;29;20114;-76
2023/07/01 05:27:30;;;;;;;1.92;0.98;;;22.10;55.90;;;;;;4957940;29;20019;-75
2023/07/01 05:29:57;;;;;;;1.10;1.00;;;22.00;55.80;;;;;;4941910;29;20042;-76
2023/07/01 05:32:23;;;;;;;1.73;1.05;;;22.00;55.80;;;;;;4957500;29;20035;-75
2023/07/01 05:34:49;;;;;;;0.90;0.90;;;22.00;55.80;;;;;;4941491;28;20026;-75
2023/07/01 05:37:14;;;;;;;1.10;1.00;;;22.00;55.90;;;;;;4958327;28;20404;-75
2023/07/01 05:39:40;;;;;;;1.25;1.02;;;22.00;55.90;;;;;;4957542;29;20508;-75
2023/07/01 05:42:06;;;;;;;1.50;1.10;;;22.00;55.90;;;;;;4959081;28;20046;-75
2023/07/01 05:44:32;;;;;;;1.02;0.93;;;21.90;55.90;;;;;;4957890;29;20031;-75
2023/07/01 05:46:58;;;;;;;0.80;0.80;;;21.90;56.00;;;;;;4941277;29;20042;-75
2023/07/01 05:49:24;;;;;;;0.80;0.80;;;21.90;56.00;;;;;;4957911;29;20044;-75
2023/07/01 05:51:51;;;;;;;0.80;0.80;;;21.90;56.00;;;;;;4941041;29;20031;-75
2023/07/01 05:54:17;;;;;;;1.10;1.00;;;21.90;56.70;;;;;;4941181;29;20428;-75
2023/07/01 05:56:43;;;;;;;1.25;0.98;;;21.90;56.00;;;;;;4941123;29;20040;-75
2023/07/01 05:59:08;;;;;;;1.08;0.98;;;21.80;56.00;;;;;;4957699;28;20031;-75
2023/07/01 06:01:34;;;;;;;1.27;1.13;;;21.80;56.10;;;;;;4941784;29;20059;-75
2023/07/01 06:04:00;;;;;;;1.20;1.10;;;21.80;56.20;;;;;;4956550;29;20507;-75
2023/07/01 06:06:26;;;;;;;1.00;1.00;;;21.80;56.20;;;;;;4957307;29;20090;-75
2023/07/01 06:08:51;;;;;;;1.02;0.90;;;21.80;56.30;;;;;;4957858;28;20395;-75
2023/07/01 06:11:17;;;;;;;1.60;1.08;;;21.80;56.20;;;;;;4956555;29;20087;-76
2023/07/01 06:13:47;;;;;;;1.10;1.00;;;21.80;56.30;;;;;;4941153;29;20047;-75
2023/07/01 06:16:14;;;;;;;1.10;1.00;;;21.80;56.30;;;;;;4956832;29;20424;-75
2023/07/01 06:18:40;;;;;;;0.80;0.80;;;21.70;56.30;;;;;;4957429;28;20122;-75
2023/07/01 06:21:06;;;;;;;0.80;0.80;;;21.80;56.40;;;;;;4957515;28;20063;-75
2023/07/01 06:23:33;;;;;;;1.13;1.00;;;21.70;56.40;;;;;;4956547;29;20040;-75
2023/07/01 06:25:59;;;;;;;0.93;0.90;;;21.70;56.50;;;;;;4957855;28;20051;-75
2023/07/01 06:28:24;;;;;;;0.90;0.90;;;21.80;56.50;;;;;;4940140;29;20046;-75
2023/07/01 06:30:50;;;;;;;1.02;1.00;;;21.70;56.40;;;;;;4958428;28;20148;-75
2023/07/01 06:33:16;;;;;;;1.10;1.00;;;21.70;56.40;;;;;;4957386;28;20031;-74
2023/07/01 06:35:43;;;;;;;1.27;1.17;;;21.70;56.50;;;;;;4956214;28;20443;-78
2023/07/01 06:38:09;;;;;;;0.80;0.80;;;21.70;56.60;;;;;;4941091;29;20031;-73
2023/07/01 06:40:35;;;;;;;0.95;0.80;;;21.70;56.60;;;;;;4957578;28;20190;-73
2023/07/01 06:43:04;;;;;;;0.82;0.80;;;21.70;56.70;;;;;;4957094;29;20531;-72
2023/07/01 06:45:30;;;;;;;0.80;0.80;;;21.70;56.80;;;;;;4957066;28;20030;-73
2023/07/01 06:47:57;;;;;;;1.05;0.90;;;21.70;56.90;;;;;;4939790;29;20035;-73
2023/07/01 06:50:23;;;;;;;0.90;0.90;;;21.70;56.90;;;;;;4940058;29;20035;-73
2023/07/01 06:52:49;;;;;;;0.90;0.75;;;21.70;56.90;;;;;;4957176;28;20049;-74
2023/07/01 06:55:15;;;;;;;1.20;0.88;;;21.70;56.90;;;;;;4955990;29;20045;-74
2023/07/01 06:57:42;;;;;;;1.17;0.90;;;21.70;56.90;;;;;;4955920;29;20130;-74
2023/07/01 07:00:10;;;;;;;1.75;1.10;;;21.70;57.00;;;;;;4939922;28;20043;-74
2023/07/01 07:02:36;;;;;;;0.93;0.90;;;21.70;57.00;;;;;;4939805;29;20027;-75
2023/07/01 07:05:06;;;;;;;0.95;0.88;;;21.60;56.90;;;;;;4957282;28;20118;-73
2023/07/01 07:07:32;;;;;;;1.15;1.00;;;21.70;57.10;;;;;;4956014;28;20027;-74
2023/07/01 07:09:58;;;;;;;1.00;0.90;;;21.70;57.10;;;;;;4956619;28;20027;-74
2023/07/01 07:12:25;;;;;;;0.77;0.77;;;21.70;57.10;;;;;;4955645;29;20027;-74
2023/07/01 07:14:51;;;;;;;0.70;0.70;;;21.70;57.10;;;;;;4956463;28;20031;-74
2023/07/01 07:17:18;;;;;;;0.95;0.90;;;21.70;57.20;;;;;;4956529;28;20114;-73
2023/07/01 07:19:44;;;;;;;1.50;1.10;;;21.70;57.20;;;;;;4955933;29;20039;-73
2023/07/01 07:22:09;;;;;;;0.73;0.70;;;21.70;57.30;;;;;;4956484;28;20483;-73
2023/07/01 07:24:35;;;;;;;1.13;0.90;;;21.60;57.20;;;;;;4939558;29;20483;-73
2023/07/01 07:27:01;;;;;;;1.13;0.80;;;21.70;57.20;;;;;;4939797;29;20038;-77
2023/07/01 07:29:29;;;;;;;0.80;0.80;;;21.70;57.40;;;;;;4956076;28;20027;-75
2023/07/01 07:31:56;;;;;;;0.90;0.90;;;21.70;57.40;;;;;;4939500;29;20031;-75
2023/07/01 07:34:22;;;;;;;0.80;0.80;;;21.70;57.40;;;;;;4956293;28;20065;-75
2023/07/01 07:36:48;;;;;;;0.70;0.70;;;21.70;57.50;;;;;;4956271;28;20031;-75
2023/07/01 07:39:14;;;;;;;0.77;0.77;;;21.70;57.50;;;;;;4939230;29;20046;-74
2023/07/01 07:41:40;;;;;;;0.75;0.75;;;21.70;57.50;;;;;;4938939;29;20051;-74
2023/07/01 07:44:06;;;;;;;0.60;0.60;;;21.70;57.60;;;;;;4955171;29;20039;-77
2023/07/01 07:46:33;;;;;;;0.88;0.82;;;21.70;57.60;;;;;;4938230;28;20070;-77
2023/07/01 07:48:58;;;;;;;0.68;0.68;;;21.70;57.60;;;;;;4956488;28;20532;-75
2023/07/01 07:51:24;;;;;;;1.00;0.82;;;21.70;57.60;;;;;;4939811;28;20039;-75
2023/07/01 07:53:50;;;;;;;0.75;0.75;;;21.70;57.70;;;;;;4923205;29;20480;-75
2023/07/01 07:56:16;;;;;;;0.80;0.80;;;21.70;57.70;;;;;;4939066;29;20031;-77
2023/07/01 07:58:42;;;;;;;1.25;0.82;;;21.70;57.70;;;;;;4955886;28;20036;-77
2023/07/01 08:01:08;;;;;;;0.70;0.70;;;21.70;57.70;;;;;;4955114;29;20061;-77
2023/07/01 08:03:33;;;;;;;0.80;0.80;;;21.70;57.70;;;;;;4956029;29;20046;-78
2023/07/01 08:05:59;;;;;;;0.70;0.70;;;21.70;57.70;;;;;;4938633;29;20124;-75
2023/07/01 08:08:25;;;;;;;0.60;0.60;;;21.70;57.80;;;;;;4938982;29;20031;-74
2023/07/01 08:10:52;;;;;;;0.77;0.70;;;21.70;57.80;;;;;;4939135;29;20038;-75
2023/07/01 08:13:18;;;;;;;0.70;0.70;;;21.70;57.80;;;;;;4954566;29;20041;-74
2023/07/01 08:15:44;;;;;;;1.25;0.90;;;21.70;57.80;;;;;;4954877;29;20023;-77
2023/07/01 08:18:10;;;;;;;0.73;0.73;;;21.70;57.80;;;;;;4956144;28;20094;-74
2023/07/01 08:20:38;;;;;;;0.73;0.70;;;21.70;57.90;;;;;;4954762;29;20034;-74
2023/07/01 08:23:04;;;;;;;0.75;0.73;;;21.70;57.90;;;;;;4954422;29;20122;-75
2023/07/01 08:25:30;;;;;;;0.80;0.80;;;21.70;57.90;;;;;;4954489;29;20519;-77
2023/07/01 08:27:55;;;;;;;0.68;0.68;;;21.70;58.00;;;;;;4938337;29;20067;-77
2023/07/01 08:30:22;;;;;;;0.90;0.90;;;21.70;58.00;;;;;;4954449;29;20032;-74
2023/07/01 08:32:48;;;;;;;0.73;0.73;;;21.80;58.10;;;;;;4938262;29;20043;-75
2023/07/01 08:35:14;;;;;;;0.82;0.82;;;21.70;58.00;;;;;;4938390;29;20058;-74
2023/07/01 08:37:40;;;;;;;0.80;0.77;;;21.80;58.10;;;;;;4954286;29;20062;-74
2023/07/01 08:40:08;;;;;;;1.13;0.80;;;21.70;58.10;;;;;;4956026;28;20039;-77
2023/07/01 08:42:48;;;;;;;0.88;0.80;;;21.80;58.20;;;;;;4955700;29;20043;-77
2023/07/01 08:45:14;;;;;;;0.80;0.75;;;21.80;58.20;;;;;;4956038;28;20082;-74
2023/07/01 08:47:41;;;;;;;0.85;0.80;;;21.80;58.20;;;;;;4938331;29;20122;-74
2023/07/01 08:50:08;;;;;;;0.85;0.85;;;21.70;58.20;;;;;;4954073;28;20043;-77
2023/07/01 08:52:46;;;;;;;0.68;0.68;;;21.80;58.20;;;;;;4938774;29;20042;-77
2023/07/01 08:55:13;;;;;;;0.80;0.80;;;21.80;58.40;;;;;;4954366;28;20172;-76
2023/07/01 08:57:41;;;;;;;0.75;0.75;;;21.80;58.20;;;;;;4939833;29;20126;-77
2023/07/01 09:00:15;;;;;;;0.80;0.80;;;21.80;58.30;;;;;;4942735;28;20031;-74
2023/07/01 09:02:41;;;;;;;0.63;0.63;;;21.80;58.40;;;;;;4958050;29;20040;-76
2023/07/01 09:05:08;;;;;;;0.75;0.70;;;21.80;58.30;;;;;;4958149;29;20494;-77
2023/07/01 09:07:33;;;;;;;1.25;0.80;;;21.80;58.40;;;;;;4959546;28;20027;-76
2023/07/01 09:10:03;;;;;;;0.80;0.80;;;21.90;58.40;;;;;;4942188;28;20495;-77
2023/07/01 09:12:32;;;;;;;0.70;0.70;;;21.80;58.40;;;;;;4958103;29;20071;-76
2023/07/01 09:15:00;;;;;;;0.80;0.80;;;21.90;58.50;;;;;;4959043;28;20460;-77
2023/07/01 09:17:32;;;;;;;0.70;0.70;;;21.80;58.50;;;;;;4958529;28;20031;-77
2023/07/01 09:20:04;;;;;;;0.80;0.80;;;21.90;58.70;;;;;;4958116;28;20535;-79
2023/07/01 09:22:30;;;;;;;0.80;0.80;;;21.90;58.60;;;;;;4943090;29;20397;-78
2023/07/01 09:24:57;;;;;;;0.80;0.80;;;21.90;58.70;;;;;;4958818;28;20376;-77
2023/07/01 09:27:23;;;;;;;0.85;0.82;;;21.90;58.70;;;;;;4959138;28;20122;-78
2023/07/01 09:29:49;;;;;;;0.70;0.70;;;21.90;58.70;;;;;;4957487;29;20118;-75
2023/07/01 09:32:32;;;;;;;0.75;0.73;;;21.90;58.80;;;;;;4959262;28;20519;-77
2023/07/01 09:34:58;;;;;;;0.65;0.65;;;22.00;58.90;;;;;;4959261;28;20353;-76
2023/07/01 09:37:28;;;;;;;0.70;0.70;;;21.90;58.70;;;;;;4957596;29;20035;-80
2023/07/01 09:39:54;;;;;;;0.80;0.80;;;22.00;58.90;;;;;;4958769;29;20036;-77
2023/07/01 09:42:20;;;;;;;0.75;0.75;;;22.00;58.90;;;;;;4957324;29;20071;-77
2023/07/01 09:45:08;;;;;;;0.70;0.70;;;21.90;58.90;;;;;;4941476;28;20036;-78
2023/07/01 09:47:34;;;;;;;0.95;0.80;;;22.00;59.10;;;;;;4958739;28;20035;-77
2023/07/01 09:50:02;;;;;;;0.82;0.80;;;22.00;58.90;;;;;;4941288;29;20036;-77
2023/07/01 09:52:32;;;;;;;1.27;0.80;;;22.00;59.00;;;;;;4941249;29;20480;-77
2023/07/01 09:55:00;;;;;;;0.70;0.70;;;22.00;59.10;;;;;;4941024;28;20038;-77
2023/07/01 09:57:27;;;;;;;0.85;0.85;;;22.00;59.10;;;;;;4940958;29;20064;-77
2023/07/01 09:59:53;;;;;;;0.98;0.98;;;22.00;59.00;;;;;;4957205;29;20035;-77
2023/07/01 10:02:19;;;;;;;0.80;0.77;;;22.00;59.00;;;;;;4941030;29;20231;-77
2023/07/01 10:04:44;;;;;;;0.80;0.80;;;22.00;59.00;;;;;;4941044;29;20168;-78
2023/07/01 10:07:10;;;;;;;0.57;0.57;;;22.00;59.00;;;;;;4956777;29;20039;-77
2023/07/01 10:09:42;;;;;;;0.70;0.70;;;22.00;59.10;;;;;;4955673;28;20498;-77
2023/07/01 10:12:09;;;;;;;0.88;0.80;;;22.10;59.10;;;;;;4956789;28;20031;-78
2023/07/01 10:14:35;;;;;;;0.73;0.70;;;22.00;59.00;;;;;;4957576;29;20090;-77
2023/07/01 10:17:01;;;;;;;0.82;0.82;;;22.00;59.00;;;;;;4957016;29;20440;-78
2023/07/01 10:19:32;;;;;;;1.30;0.90;;;22.00;59.00;;;;;;4956958;29;20023;-78
2023/07/01 10:22:29;;;;;;;0.60;0.60;;;22.10;59.20;;;;;;4940527;29;20085;-77
2023/07/01 10:25:03;;;;;;;0.68;0.68;;;22.10;59.20;;;;;;4956132;29;20122;-76
2023/07/01 10:27:42;;;;;;;0.75;0.75;;;22.10;59.20;;;;;;4957276;28;20114;-76
2023/07/01 10:30:12;;;;;;;0.77;0.70;;;22.10;59.30;;;;;;4940964;28;20078;-77
2023/07/01 10:32:38;;;;;;;0.70;0.70;;;22.10;59.90;;;;;;4957082;29;20051;-76
2023/07/01 10:35:04;;;;;;;0.80;0.80;;;22.00;59.30;;;;;;4940518;29;20129;-77
2023/07/01 10:37:31;;;;;;;0.80;0.80;;;22.10;59.30;;;;;;4957690;28;20105;-76
2023/07/01 10:39:59;;;;;;;0.70;0.70;;;22.10;59.30;;;;;;4940436;29;20027;-76
2023/07/01 10:42:32;;;;;;;0.90;0.90;;;22.10;59.30;;;;;;4957266;28;20055;-77
2023/07/01 10:45:36;;;;;;;0.70;0.70;;;22.10;59.40;;;;;;4958342;28;20035;-76
2023/07/01 10:48:11;;;;;;;1.25;0.95;;;22.10;59.40;;;;;;4957285;28;20384;-76
2023/07/01 10:51:10;;;;;;;0.68;0.68;;;22.10;59.30;;;;;;4956124;29;20062;-77
2023/07/01 10:53:55;;;;;;;0.80;0.80;;;22.10;59.30;;;;;;4957249;28;20488;-77
2023/07/01 10:56:21;;;;;;;0.70;0.70;;;22.10;59.30;;;;;;4940132;28;20059;-76
2023/07/01 10:59:23;;;;;;;0.70;0.70;;;22.10;59.30;;;;;;4940372;29;20027;-77
2023/07/01 11:01:56;;;;;;;0.82;0.82;;;22.10;59.40;;;;;;4957308;29;20110;-76
2023/07/01 11:04:45;;;;;;;0.85;0.85;;;22.10;59.30;;;;;;4956104;28;20464;-77
2023/07/01 11:07:11;;;;;;;0.75;0.75;;;22.20;59.40;;;;;;4940490;29;20046;-77
2023/07/01 11:09:36;;;;;;;0.90;0.90;;;22.10;59.30;;;;;;4956820;28;20391;-77
2023/07/01 11:12:04;;;;;;;0.80;0.80;;;22.20;59.40;;;;;;4939638;29;20055;-76
2023/07/01 11:14:36;;;;;;;1.02;0.90;;;22.20;59.50;;;;;;4940528;29;20071;-77
2023/07/01 11:17:11;;;;;;;0.90;0.90;;;22.20;59.40;;;;;;4957822;28;20028;-77
2023/07/01 11:19:37;;;;;;;0.90;0.90;;;22.20;59.40;;;;;;4956046;29;20039;-76
2023/07/01 11:22:05;;;;;;;0.93;0.93;;;22.20;59.40;;;;;;4956610;29;20031;-77
2023/07/01 11:24:31;;;;;;;0.80;0.80;;;22.20;59.40;;;;;;4955576;28;20492;-77
2023/07/01 11:27:02;;;;;;;1.13;1.02;;;22.20;59.40;;;;;;4955512;29;20131;-76
2023/07/01 11:29:29;;;;;;;0.70;0.70;;;22.30;59.70;;;;;;4939548;29;20067;-77
2023/07/01 11:32:01;;;;;;;0.90;0.90;;;22.30;59.60;;;;;;4939322;29;20476;-76
2023/07/01 11:34:28;;;;;;;0.85;0.80;;;22.30;59.70;;;;;;4955295;29;20050;-76
2023/07/01 11:36:54;;;;;;;0.95;0.80;;;22.30;59.60;;;;;;4956927;28;20072;-77
2023/07/01 11:39:21;;;;;;;1.00;0.85;;;22.40;59.70;;;;;;4955035;29;20488;-76
2023/07/01 11:41:52;;;;;;;1.05;0.95;;;22.40;59.70;;;;;;4956625;28;20162;-76
2023/07/01 11:44:23;;;;;;;0.98;0.95;;;22.40;59.70;;;;;;4956353;28;20435;-77
2023/07/01 11:46:49;;;;;;;1.02;0.93;;;22.40;59.60;;;;;;4955237;29;20471;-77
2023/07/01 11:49:22;;;;;;;0.93;0.93;;;22.50;59.60;;;;;;4956061;28;20507;-77
2023/07/01 11:51:48;;;;;;;1.08;1.02;;;22.50;59.70;;;;;;4939064;29;20032;-76
2023/07/01 11:54:16;;;;;;;1.05;1.02;;;22.50;59.50;;;;;;4955849;28;20360;-77
2023/07/01 11:56:43;;;;;;;0.95;0.95;;;22.60;59.60;;;;;;4955926;28;20027;-78
2023/07/01 11:59:09;;;;;;;1.00;1.00;;;22.60;59.60;;;;;;4939441;29;20183;-78
2023/07/01 12:01:38;;;;;;;0.85;0.85;;;22.60;59.40;;;;;;4954583;28;20168;-77
2023/07/01 12:04:15;;;;;;;0.90;0.90;;;22.70;59.50;;;;;;4955480;29;20090;-76
2023/07/01 12:06:41;;;;;;;1.05;1.00;;;22.70;59.50;;;;;;4954967;29;20031;-77
2023/07/01 12:09:08;;;;;;;1.00;1.00;;;22.70;59.30;;;;;;4954727;29;20042;-77
2023/07/01 12:11:49;;;;;;;1.13;1.02;;;22.70;59.30;;;;;;4955685;28;20047;-76
2023/07/01 12:14:19;;;;;;;1.45;1.15;;;22.80;59.50;;;;;;4955714;29;20035;-77
2023/07/01 12:16:47;;;;;;;1.20;1.10;;;22.80;59.30;;;;;;4954577;29;20420;-77
2023/07/01 12:19:14;;;;;;;1.20;1.10;;;22.90;59.30;;;;;;4938668;29;20046;-77
2023/07/01 12:21:40;;;;;;;1.00;0.90;;;22.90;59.30;;;;;;4938732;29;20480;-76
2023/07/01 12:24:23;;;;;;;0.95;0.95;;;22.90;59.30;;;;;;4938460;29;20039;-77
2023/07/01 12:26:52;;;;;;;1.65;1.20;;;22.90;59.40;;;;;;4938821;29;20039;-77
2023/07/01 12:29:17;;;;;;;1.30;1.20;;;22.90;59.20;;;;;;4938688;29;20046;-77
2023/07/01 12:31:44;;;;;;;1.25;1.15;;;23.00;59.30;;;;;;4955055;28;20036;-77
2023/07/01 12:34:10;;;;;;;1.23;1.13;;;23.00;59.30;;;;;;4955729;28;20067;-77
2023/07/01 12:36:36;;;;;;;0.90;0.90;;;23.00;59.30;;;;;;4955646;28;20031;-76
2023/07/01 12:39:03;;;;;;;1.23;1.13;;;23.00;59.30;;;;;;4954140;29;20109;-77
2023/07/01 12:41:30;;;;;;;1.15;1.10;;;23.00;59.20;;;;;;4955681;29;20464;-78
2023/07/01 12:43:57;;;;;;;1.05;1.05;;;23.10;59.30;;;;;;4954451;29;20043;-76
2023/07/01 12:46:23;;;;;;;1.40;1.08;;;23.00;59.20;;;;;;4954861;29;20122;-77
2023/07/01 12:48:49;;;;;;;1.20;1.10;;;23.10;59.40;;;;;;4938613;29;20431;-76
2023/07/01 12:51:15;;;;;;;1.33;1.20;;;23.10;59.30;;;;;;4954814;29;20070;-78